createdAt,value
2019-01-10T00:00:23.659Z,35.70
2019-01-10T00:02:52.389Z,30.37
2019-01-10T00:05:21.304Z,24.30
2019-01-10T00:07:49.953Z,24.90
2019-01-10T00:10:18.888Z,26.87
2019-01-10T00:12:47.691Z,27.77
2019-01-10T00:15:19.536Z,24.37
2019-01-10T00:17:50.120Z,25.40
2019-01-10T00:20:18.892Z,26.63
2019-01-10T00:22:47.720Z,25.47
2019-01-10T00:25:16.468Z,25.47
2019-01-10T00:27:45.318Z,27.13
2019-01-10T00:30:18.935Z,25.00
2019-01-10T00:32:53.440Z,27.30
2019-01-10T00:35:22.076Z,27.83
2019-01-10T00:37:50.709Z,25.57
2019-01-10T00:40:19.397Z,27.00
2019-01-10T00:42:49.805Z,26.53
2019-01-10T00:45:18.519Z,26.67
2019-01-10T00:47:47.816Z,29.07
2019-01-10T00:50:18.993Z,28.27
2019-01-10T00:52:47.619Z,28.10
2019-01-10T00:55:16.294Z,28.47
2019-01-10T00:57:44.923Z,26.60
2019-01-10T01:00:16.571Z,27.47
2019-01-10T01:02:45.258Z,28.80
2019-01-10T01:05:15.402Z,27.37
2019-01-10T01:07:44.138Z,26.73
2019-01-10T01:10:21.198Z,27.27
2019-01-10T01:12:58.013Z,27.17
2019-01-10T01:15:20.605Z,26.60
2019-01-10T01:17:49.541Z,27.03
2019-01-10T01:20:20.725Z,26.27
2019-01-10T01:22:49.470Z,26.97
2019-01-10T01:25:18.247Z,28.27
2019-01-10T01:27:46.882Z,28.27
2019-01-10T01:30:17.967Z,28.63
2019-01-10T01:32:46.957Z,28.60
2019-01-10T01:35:16.387Z,30.83
2019-01-10T01:37:45.316Z,27.83
2019-01-10T01:40:16.677Z,27.00
2019-01-10T01:42:45.308Z,27.30
2019-01-10T01:45:16.510Z,29.60
2019-01-10T01:47:45.280Z,29.90
2019-01-10T01:50:16.825Z,29.53
2019-01-10T01:52:45.454Z,28.97
2019-01-10T01:55:14.278Z,29.57
2019-01-10T01:57:43.126Z,30.77
2019-01-10T02:00:20.170Z,32.17
2019-01-10T02:02:48.803Z,34.43
2019-01-10T02:05:17.934Z,33.60
2019-01-10T02:07:47.008Z,33.57
2019-01-10T02:10:17.849Z,29.47
2019-01-10T02:12:46.484Z,27.40
2019-01-10T02:15:15.561Z,32.87
2019-01-10T02:17:49.161Z,35.07
2019-01-10T02:20:14.766Z,34.97
2019-01-10T02:22:43.637Z,38.10
2019-01-10T02:25:14.688Z,40.53
2019-01-10T02:27:43.531Z,42.90
2019-01-10T02:30:17.829Z,46.10
2019-01-10T02:32:46.465Z,50.57
2019-01-10T02:35:16.226Z,54.43
2019-01-10T02:37:44.906Z,63.93
2019-01-10T02:40:13.756Z,61.83
2019-01-10T02:42:42.396Z,59.77
2019-01-10T02:45:14.084Z,53.33
2019-01-10T02:47:42.807Z,46.03
2019-01-10T02:50:14.714Z,45.33
2019-01-10T02:52:43.394Z,46.30
2019-01-10T02:55:12.023Z,42.87
2019-01-10T02:57:40.668Z,44.27
2019-01-10T03:00:20.737Z,43.43
2019-01-10T03:02:49.370Z,43.43
2019-01-10T03:05:18.400Z,42.37
2019-01-10T03:07:47.083Z,40.00
2019-01-10T03:10:18.724Z,40.57
2019-01-10T03:12:47.372Z,40.03
2019-01-10T03:15:16.244Z,39.63
2019-01-10T03:17:44.882Z,38.73
2019-01-10T03:20:19.337Z,38.87
2019-01-10T03:22:48.163Z,37.03
2019-01-10T03:25:16.792Z,35.67
2019-01-10T03:27:45.530Z,36.53
2019-01-10T03:30:17.145Z,37.87
2019-01-10T03:32:45.709Z,36.90
2019-01-10T03:35:14.848Z,35.37
2019-01-10T03:37:43.545Z,36.93
2019-01-10T03:40:14.832Z,38.83
2019-01-10T03:42:43.866Z,38.50
2019-01-10T03:45:17.958Z,39.20
2019-01-10T03:47:46.708Z,40.97
2019-01-10T03:50:16.739Z,40.97
2019-01-10T03:52:45.671Z,43.90
2019-01-10T03:55:14.712Z,44.47
2019-01-10T03:57:43.541Z,43.27
2019-01-10T04:00:23.067Z,43.33
2019-01-10T04:02:51.725Z,43.60
2019-01-10T04:05:20.755Z,46.20
2019-01-10T04:07:49.932Z,45.67
2019-01-10T04:10:18.579Z,46.43
2019-01-10T04:12:47.232Z,44.37
2019-01-10T04:15:17.042Z,45.80
2019-01-10T04:17:45.684Z,46.90
2019-01-10T04:20:16.668Z,47.10
2019-01-10T04:22:45.299Z,46.87
2019-01-10T04:25:14.743Z,46.90
2019-01-10T04:27:43.657Z,47.80
2019-01-10T04:30:15.666Z,56.70
2019-01-10T04:32:44.233Z,48.83
2019-01-10T04:35:12.905Z,49.37
2019-01-10T04:37:41.553Z,48.53
2019-01-10T04:40:13.448Z,46.70
2019-01-10T04:42:42.051Z,47.93
2019-01-10T04:45:10.797Z,47.80
2019-01-10T04:47:39.452Z,50.37
2019-01-10T04:50:13.237Z,56.77
2019-01-10T04:52:41.826Z,54.50
2019-01-10T04:55:11.778Z,51.77
2019-01-10T04:57:40.767Z,51.17
2019-01-10T05:00:18.451Z,45.80
2019-01-10T05:02:47.077Z,45.07
2019-01-10T05:05:15.722Z,48.60
2019-01-10T05:07:44.374Z,50.77
2019-01-10T05:10:13.250Z,49.50
2019-01-10T05:12:41.973Z,46.30
2019-01-10T05:15:13.193Z,54.60
2019-01-10T05:17:42.117Z,48.53
2019-01-10T05:20:16.272Z,47.57
2019-01-10T05:22:45.058Z,47.50
2019-01-10T05:25:13.810Z,49.43
2019-01-10T05:27:42.445Z,45.87
2019-01-10T05:30:19.921Z,47.40
2019-01-10T05:32:48.763Z,44.40
2019-01-10T05:35:17.413Z,44.77
2019-01-10T05:37:46.146Z,47.60
2019-01-10T05:40:14.883Z,51.37
2019-01-10T05:42:47.608Z,51.00
2019-01-10T05:45:17.886Z,47.40
2019-01-10T05:47:46.521Z,45.43
2019-01-10T05:50:17.817Z,44.00
2019-01-10T05:52:47.181Z,41.97
2019-01-10T05:55:18.489Z,44.07
2019-01-10T05:57:47.055Z,42.97
2019-01-10T06:00:21.748Z,44.37
2019-01-10T06:02:50.416Z,42.80
2019-01-10T06:05:19.047Z,41.30
2019-01-10T06:07:47.682Z,43.40
2019-01-10T06:10:27.039Z,43.93
2019-01-10T06:12:55.671Z,45.93
2019-01-10T06:15:24.297Z,40.47
2019-01-10T06:17:52.993Z,46.53
2019-01-10T06:20:23.137Z,39.63
2019-01-10T06:22:51.767Z,41.13
2019-01-10T06:25:20.670Z,42.10
2019-01-10T06:27:49.231Z,44.20
2019-01-10T06:30:22.606Z,40.20
2019-01-10T06:32:51.197Z,40.60
2019-01-10T06:35:20.539Z,45.60
2019-01-10T06:37:49.191Z,54.37
2019-01-10T06:40:20.143Z,45.83
2019-01-10T06:42:48.798Z,51.10
2019-01-10T06:45:18.528Z,48.87
2019-01-10T06:47:47.396Z,51.23
2019-01-10T06:50:17.348Z,48.60
2019-01-10T06:52:46.197Z,47.60
2019-01-10T06:55:15.079Z,47.57
2019-01-10T06:57:43.712Z,48.80
2019-01-10T07:00:18.061Z,49.50
2019-01-10T07:02:46.815Z,47.93
2019-01-10T07:05:15.453Z,50.90
2019-01-10T07:07:44.095Z,50.97
2019-01-10T07:10:24.029Z,51.37
2019-01-10T07:12:52.651Z,52.03
2019-01-10T07:15:21.425Z,50.47
2019-01-10T07:17:50.104Z,54.10
2019-01-10T07:20:18.741Z,50.33
2019-01-10T07:22:52.391Z,51.03
2019-01-10T07:25:21.049Z,53.97
2019-01-10T07:27:49.688Z,50.10
2019-01-10T07:30:24.461Z,47.93
2019-01-10T07:32:53.096Z,48.23
2019-01-10T07:35:21.678Z,52.93
2019-01-10T07:37:54.430Z,54.40
2019-01-10T07:40:23.065Z,57.07
2019-01-10T07:42:51.699Z,55.53
2019-01-10T07:45:22.362Z,53.43
2019-01-10T07:47:51.005Z,49.27
2019-01-10T07:50:23.517Z,52.77
2019-01-10T07:52:52.134Z,48.00
2019-01-10T07:55:20.767Z,43.83
2019-01-10T07:57:49.396Z,42.27
2019-01-10T08:00:19.877Z,42.57
2019-01-10T08:02:48.548Z,41.20
2019-01-10T08:05:17.384Z,44.03
2019-01-10T08:07:46.446Z,41.77
2019-01-10T08:10:16.673Z,40.47
2019-01-10T08:12:45.787Z,41.90
2019-01-10T08:15:17.886Z,43.30
2019-01-10T08:17:46.526Z,43.17
2019-01-10T08:20:15.324Z,43.87
2019-01-10T08:22:44.218Z,44.83
2019-01-10T08:25:13.460Z,52.17
2019-01-10T08:27:42.186Z,47.90
2019-01-10T08:30:16.159Z,47.60
2019-01-10T08:32:44.804Z,48.03
2019-01-10T08:35:15.042Z,53.27
2019-01-10T08:37:43.895Z,58.97
2019-01-10T08:40:12.724Z,62.57
2019-01-10T08:42:41.360Z,71.23
2019-01-10T08:45:11.242Z,89.63
2019-01-10T08:47:39.859Z,94.07
2019-01-10T08:50:13.989Z,69.10
2019-01-10T08:52:42.678Z,67.53
2019-01-10T08:55:11.305Z,68.27
2019-01-10T08:57:39.844Z,74.10
2019-01-10T09:00:11.761Z,75.10
2019-01-10T09:02:40.400Z,75.53
2019-01-10T09:05:09.388Z,71.70
2019-01-10T09:07:37.993Z,74.23
2019-01-10T09:10:09.538Z,70.93
2019-01-10T09:12:38.161Z,70.17
2019-01-10T09:15:09.073Z,68.00
2019-01-10T09:17:37.715Z,68.83
2019-01-10T09:20:09.294Z,70.27
2019-01-10T09:22:37.941Z,69.17
2019-01-10T09:25:07.189Z,68.37
2019-01-10T09:27:35.760Z,66.70
2019-01-10T09:30:05.973Z,69.87
2019-01-10T09:32:34.607Z,68.73
2019-01-10T09:35:03.232Z,67.80
2019-01-10T09:37:31.907Z,69.33
2019-01-10T09:40:00.401Z,68.50
2019-01-10T09:42:28.927Z,55.10
2019-01-10T09:44:57.653Z,60.23
2019-01-10T09:47:26.294Z,64.83
2019-01-10T09:49:54.859Z,62.90
2019-01-10T09:52:23.536Z,65.00
2019-01-10T09:54:52.126Z,66.93
2019-01-10T09:57:20.678Z,66.60
2019-01-10T09:59:50.340Z,53.40
2019-01-10T10:02:19.046Z,55.13
2019-01-10T10:04:47.604Z,57.23
2019-01-10T10:07:16.581Z,55.53
2019-01-10T10:09:45.258Z,54.70
2019-01-10T10:12:13.895Z,56.40
2019-01-10T10:14:42.753Z,56.50
2019-01-10T10:17:11.240Z,52.77
2019-01-10T10:19:39.871Z,51.33
2019-01-10T10:22:08.715Z,58.90
2019-01-10T10:24:37.275Z,60.73
2019-01-10T10:27:05.917Z,55.27
2019-01-10T10:29:34.587Z,48.83
2019-01-10T10:32:03.207Z,46.23
2019-01-10T10:34:31.779Z,53.57
2019-01-10T10:37:00.450Z,55.27
2019-01-10T10:39:29.081Z,48.63
2019-01-10T10:41:57.708Z,45.93
2019-01-10T10:44:26.368Z,48.90
2019-01-10T10:46:54.923Z,47.47
2019-01-10T10:49:23.718Z,63.63
2019-01-10T10:51:52.402Z,66.37
2019-01-10T10:54:20.969Z,79.10
2019-01-10T10:56:49.534Z,84.23
2019-01-10T10:59:18.215Z,87.40
2019-01-10T11:01:46.850Z,86.13
2019-01-10T11:04:15.485Z,86.63
2019-01-10T11:06:44.417Z,80.30
2019-01-10T11:09:13.055Z,82.47
2019-01-10T11:11:41.560Z,76.20
2019-01-10T11:14:10.480Z,81.37
2019-01-10T11:16:39.121Z,75.00
2019-01-10T11:19:07.765Z,83.87
2019-01-10T11:21:36.378Z,82.23
2019-01-10T11:24:05.522Z,77.50
2019-01-10T11:26:34.171Z,81.10
2019-01-10T11:29:02.790Z,87.57
2019-01-10T11:31:31.422Z,78.37
2019-01-10T11:34:00.062Z,77.10
2019-01-10T11:36:28.769Z,72.87
2019-01-10T11:38:57.392Z,62.37
2019-01-10T11:41:26.031Z,66.83
2019-01-10T11:43:54.910Z,71.80
2019-01-10T11:46:23.564Z,68.67
2019-01-10T11:48:52.273Z,53.00
2019-01-10T11:51:20.935Z,72.07
2019-01-10T11:53:49.530Z,67.73
2019-01-10T11:56:18.210Z,68.37
2019-01-10T11:58:46.892Z,67.20
2019-01-10T12:01:15.540Z,66.77
2019-01-10T12:03:44.183Z,42.10
2019-01-10T12:06:12.856Z,54.13
2019-01-10T12:08:41.493Z,51.93
2019-01-10T12:11:10.134Z,52.80
2019-01-10T12:13:38.805Z,55.87
2019-01-10T12:16:07.447Z,51.60
2019-01-10T12:18:36.094Z,50.30
2019-01-10T12:21:04.783Z,51.63
2019-01-10T12:23:33.432Z,48.27
2019-01-10T12:26:02.148Z,44.40
2019-01-10T12:28:31.003Z,44.27
2019-01-10T12:30:59.566Z,44.53
2019-01-10T12:33:28.234Z,41.33
2019-01-10T12:35:56.937Z,46.60
2019-01-10T12:38:25.770Z,46.17
2019-01-10T12:40:54.406Z,39.20
2019-01-10T12:43:23.087Z,46.10
2019-01-10T12:45:51.816Z,46.67
2019-01-10T12:48:20.446Z,41.80
2019-01-10T12:50:49.109Z,44.17
2019-01-10T12:53:17.752Z,43.37
2019-01-10T12:55:46.367Z,40.30
2019-01-10T12:58:14.975Z,41.73
2019-01-10T13:00:43.663Z,39.10
2019-01-10T13:03:12.249Z,43.03
2019-01-10T13:05:41.082Z,42.13
2019-01-10T13:08:09.711Z,40.33
2019-01-10T13:10:38.347Z,42.63
2019-01-10T13:13:07.036Z,44.57
2019-01-10T13:15:35.671Z,43.13
2019-01-10T13:18:04.312Z,43.40
2019-01-10T13:20:32.976Z,44.97
2019-01-10T13:23:01.662Z,43.23
2019-01-10T13:25:30.273Z,42.67
2019-01-10T13:27:58.942Z,40.17
2019-01-10T13:30:27.570Z,39.90
2019-01-10T13:32:56.398Z,41.10
2019-01-10T13:35:25.120Z,41.43
2019-01-10T13:37:53.745Z,39.73
2019-01-10T13:40:22.754Z,40.77
2019-01-10T13:42:57.474Z,42.07
2019-01-10T13:45:26.281Z,41.00
2019-01-10T13:47:55.110Z,39.07
2019-01-10T13:50:26.307Z,38.77
2019-01-10T13:52:54.943Z,37.53
2019-01-10T13:55:24.060Z,39.27
2019-01-10T13:57:52.676Z,39.57
2019-01-10T14:00:28.811Z,41.50
2019-01-10T14:02:57.465Z,40.67
2019-01-10T14:05:26.095Z,43.40
2019-01-10T14:07:54.724Z,41.40
2019-01-10T14:10:23.631Z,42.57
2019-01-10T14:12:52.379Z,42.43
2019-01-10T14:15:26.691Z,42.00
2019-01-10T14:17:55.631Z,40.17
2019-01-10T14:20:24.255Z,38.20
2019-01-10T14:22:52.878Z,39.07
2019-01-10T14:25:21.721Z,36.07
2019-01-10T14:27:50.366Z,38.00
2019-01-10T14:30:21.905Z,41.53
2019-01-10T14:32:50.982Z,40.03
2019-01-10T14:35:20.100Z,42.50
2019-01-10T14:37:49.022Z,38.23
2019-01-10T14:40:18.623Z,39.23
2019-01-10T14:42:47.249Z,38.77
2019-01-10T14:45:17.881Z,40.63
2019-01-10T14:47:46.546Z,39.57
2019-01-10T14:50:18.358Z,40.53
2019-01-10T14:52:46.978Z,39.67
2019-01-10T14:55:16.145Z,39.57
2019-01-10T14:57:44.787Z,39.90
2019-01-10T15:00:16.385Z,37.80
2019-01-10T15:02:45.146Z,37.17
2019-01-10T15:05:13.787Z,40.60
2019-01-10T15:07:42.433Z,40.67
2019-01-10T15:10:12.543Z,39.53
2019-01-10T15:12:42.019Z,42.13
2019-01-10T15:15:13.792Z,40.47
2019-01-10T15:17:42.468Z,40.37
2019-01-10T15:20:14.168Z,37.43
2019-01-10T15:22:42.793Z,40.63
2019-01-10T15:25:11.459Z,52.13
2019-01-10T15:27:40.290Z,46.80
2019-01-10T15:30:17.253Z,42.83
2019-01-10T15:32:45.952Z,48.20
2019-01-10T15:35:15.437Z,41.87
2019-01-10T15:37:44.317Z,47.13
2019-01-10T15:40:15.982Z,46.50
2019-01-10T15:42:44.621Z,48.37
2019-01-10T15:45:15.964Z,50.97
2019-01-10T15:47:44.425Z,49.17
2019-01-10T15:50:15.875Z,48.13
2019-01-10T15:52:44.639Z,46.50
2019-01-10T15:55:15.475Z,49.60
2019-01-10T15:57:44.120Z,54.73
2019-01-10T16:00:15.979Z,59.77
2019-01-10T16:02:44.624Z,67.37
2019-01-10T16:05:13.254Z,71.97
2019-01-10T16:07:42.017Z,66.80
2019-01-10T16:10:13.269Z,63.97
2019-01-10T16:12:41.899Z,64.17
2019-01-10T16:15:13.584Z,62.10
2019-01-10T16:17:42.234Z,59.00
2019-01-10T16:20:12.877Z,62.13
2019-01-10T16:22:42.670Z,66.47
2019-01-10T16:25:21.138Z,58.57
2019-01-10T16:27:50.038Z,57.13
2019-01-10T16:30:27.396Z,55.23
2019-01-10T16:32:56.242Z,53.93
2019-01-10T16:35:24.884Z,50.80
2019-01-10T16:37:53.795Z,51.10
2019-01-10T16:40:22.681Z,50.07
2019-01-10T16:42:51.511Z,47.37
2019-01-10T16:45:22.792Z,49.43
2019-01-10T16:47:51.486Z,55.63
2019-01-10T16:50:20.140Z,58.50
2019-01-10T16:52:48.797Z,55.90
2019-01-10T16:55:17.452Z,50.20
2019-01-10T16:57:46.192Z,37.77
2019-01-10T17:00:26.202Z,40.00
2019-01-10T17:02:54.844Z,44.80
2019-01-10T17:05:23.502Z,44.50
2019-01-10T17:07:52.321Z,48.63
2019-01-10T17:10:21.370Z,48.30
2019-01-10T17:12:49.994Z,41.43
2019-01-10T17:15:18.680Z,43.00
2019-01-10T17:17:47.235Z,50.57
2019-01-10T17:20:21.186Z,48.67
2019-01-10T17:22:49.874Z,49.47
2019-01-10T17:25:19.934Z,49.70
2019-01-10T17:27:48.587Z,44.60
2019-01-10T17:30:23.009Z,42.77
2019-01-10T17:32:51.646Z,52.80
2019-01-10T17:35:22.952Z,59.20
2019-01-10T17:37:51.634Z,57.87
2019-01-10T17:40:22.185Z,55.07
2019-01-10T17:42:51.294Z,60.40
2019-01-10T17:45:24.330Z,65.70
2019-01-10T17:47:53.080Z,80.60
2019-01-10T17:50:21.912Z,78.77
2019-01-10T17:52:50.697Z,69.13
2019-01-10T17:55:19.382Z,63.23
2019-01-10T17:57:48.022Z,71.63
2019-01-10T18:00:25.130Z,73.93
2019-01-10T18:02:53.759Z,95.47
2019-01-10T18:05:22.535Z,112.97
2019-01-10T18:07:51.427Z,111.63
2019-01-10T18:10:23.351Z,114.83
2019-01-10T18:12:51.989Z,108.00
2019-01-10T18:15:23.521Z,110.17
2019-01-10T18:17:52.388Z,100.33
2019-01-10T18:20:33.173Z,94.07
2019-01-10T18:23:01.821Z,83.40
2019-01-10T18:25:30.587Z,62.50
2019-01-10T18:27:59.273Z,61.43
2019-01-10T18:30:27.925Z,62.03
2019-01-10T18:32:56.566Z,65.30
2019-01-10T18:35:26.409Z,62.47
2019-01-10T18:38:01.395Z,63.80
2019-01-10T18:40:30.032Z,72.70
2019-01-10T18:42:58.912Z,73.03
2019-01-10T18:45:29.676Z,74.13
2019-01-10T18:47:58.399Z,81.70
2019-01-10T18:50:27.172Z,86.67
2019-01-10T18:52:55.824Z,83.07
2019-01-10T18:55:24.462Z,90.37
2019-01-10T18:57:53.078Z,95.20
2019-01-10T19:00:29.293Z,95.37
2019-01-10T19:02:58.344Z,94.90
2019-01-10T19:05:27.488Z,83.00
2019-01-10T19:07:56.058Z,90.10
2019-01-10T19:10:25.140Z,74.10
2019-01-10T19:12:53.877Z,75.90
2019-01-10T19:15:22.528Z,75.50
2019-01-10T19:17:51.150Z,64.00
2019-01-10T19:20:24.850Z,63.63
2019-01-10T19:22:54.014Z,62.33
2019-01-10T19:25:22.943Z,62.07
2019-01-10T19:27:51.693Z,61.60
2019-01-10T19:30:28.408Z,63.17
2019-01-10T19:32:57.057Z,55.53
2019-01-10T19:35:25.704Z,54.37
2019-01-10T19:37:54.497Z,56.10
2019-01-10T19:40:23.436Z,54.67
2019-01-10T19:42:52.085Z,48.00
2019-01-10T19:45:21.967Z,45.40
2019-01-10T19:47:50.614Z,44.43
2019-01-10T19:50:23.898Z,43.70
2019-01-10T19:52:52.567Z,48.13
2019-01-10T19:55:22.410Z,50.93
2019-01-10T19:57:51.051Z,51.07
2019-01-10T20:00:34.676Z,51.50
2019-01-10T20:03:03.520Z,49.97
2019-01-10T20:05:32.161Z,47.53
2019-01-10T20:08:01.124Z,48.60
2019-01-10T20:10:29.706Z,44.80
2019-01-10T20:12:58.346Z,45.73
2019-01-10T20:15:27.025Z,35.30
2019-01-10T20:17:56.871Z,32.07
2019-01-10T20:20:33.866Z,32.23
2019-01-10T20:23:03.073Z,27.80
2019-01-10T20:25:31.712Z,27.30
2019-01-10T20:28:00.645Z,28.07
2019-01-10T20:30:29.274Z,22.23
2019-01-10T20:32:57.853Z,23.40
2019-01-10T20:35:26.543Z,19.60
2019-01-10T20:37:55.183Z,17.03
2019-01-10T20:40:23.815Z,14.77
2019-01-10T20:42:52.690Z,16.17
2019-01-10T20:45:21.429Z,13.10
2019-01-10T20:47:50.074Z,11.83
2019-01-10T20:50:19.022Z,12.73
2019-01-10T20:52:47.654Z,11.37
2019-01-10T20:55:18.191Z,10.17
2019-01-10T20:57:46.892Z,11.13
2019-01-10T21:00:20.837Z,11.40
2019-01-10T21:02:50.237Z,12.53
2019-01-10T21:05:19.006Z,12.87
2019-01-10T21:07:49.484Z,11.00
2019-01-10T21:10:19.981Z,11.57
2019-01-10T21:12:49.338Z,13.07
2019-01-10T21:15:26.927Z,12.67
2019-01-10T21:17:56.048Z,14.13
2019-01-10T21:20:24.677Z,13.83
2019-01-10T21:22:53.495Z,14.83
2019-01-10T21:25:22.244Z,14.60
2019-01-10T21:27:50.887Z,14.73
2019-01-10T21:30:22.418Z,16.07
2019-01-10T21:32:51.358Z,15.50
2019-01-10T21:35:21.178Z,16.47
2019-01-10T21:37:49.800Z,17.13
2019-01-10T21:40:20.756Z,18.20
2019-01-10T21:42:50.394Z,14.53
2019-01-10T21:45:19.889Z,15.30
2019-01-10T21:47:48.579Z,14.73
2019-01-10T21:50:22.806Z,16.20
2019-01-10T21:52:53.019Z,16.23
2019-01-10T21:55:22.275Z,16.67
2019-01-10T21:57:51.138Z,15.90
2019-01-10T22:00:25.457Z,16.27
2019-01-10T22:02:54.794Z,16.23
2019-01-10T22:05:23.433Z,16.73
2019-01-10T22:07:52.006Z,16.27
2019-01-10T22:10:20.673Z,15.73
2019-01-10T22:12:49.312Z,14.37
2019-01-10T22:15:18.561Z,16.17
2019-01-10T22:17:47.223Z,14.50
2019-01-10T22:20:22.604Z,13.60
2019-01-10T22:22:51.226Z,14.73
2019-01-10T22:25:20.173Z,10.70
2019-01-10T22:27:48.766Z,16.80
2019-01-10T22:30:19.901Z,14.33
2019-01-10T22:32:48.858Z,14.73
2019-01-10T22:35:19.370Z,16.33
2019-01-10T22:37:48.154Z,13.83
2019-01-10T22:40:19.037Z,16.17
2019-01-10T22:42:47.484Z,14.30
2019-01-10T22:45:16.924Z,14.23
2019-01-10T22:47:45.737Z,14.03
2019-01-10T22:50:16.895Z,13.47
2019-01-10T22:52:45.738Z,10.73
2019-01-10T22:55:15.511Z,12.17
2019-01-10T22:57:44.211Z,11.50
2019-01-10T23:00:33.685Z,8.67
2019-01-10T23:03:06.561Z,11.67
2019-01-10T23:05:39.804Z,12.50
2019-01-10T23:08:08.497Z,12.03
2019-01-10T23:10:37.141Z,15.13
2019-01-10T23:13:05.893Z,13.80
2019-01-10T23:15:34.707Z,15.47
2019-01-10T23:18:04.040Z,14.03
2019-01-10T23:20:32.718Z,15.63
2019-01-10T23:23:12.530Z,17.47
2019-01-10T23:25:41.328Z,14.97
2019-01-10T23:28:10.054Z,16.23
2019-01-10T23:30:56.712Z,18.57
2019-01-10T23:33:26.223Z,10.90
2019-01-10T23:36:07.545Z,12.30
2019-01-10T23:38:36.296Z,12.67
2019-01-10T23:41:05.332Z,11.77
2019-01-10T23:43:33.963Z,8.37
2019-01-10T23:46:02.664Z,7.80
2019-01-10T23:48:31.302Z,8.37
2019-01-10T23:50:59.985Z,6.90
2019-01-10T23:53:28.902Z,5.17
2019-01-10T23:55:57.562Z,5.10
2019-01-10T23:58:26.597Z,5.60
